sensor_id;sensor_type;location;lat;lon;timestamp;temperature;humidity
49242;DHT22;35079;52.704;13.814;2022-09-17T00:00:15;11.50;99.90
49242;DHT22;35079;52.704;13.814;2022-09-17T00:02:41;11.50;99.90
49242;DHT22;35079;52.704;13.814;2022-09-17T00:05:12;11.50;99.90
49242;DHT22;35079;52.704;13.814;2022-09-17T00:07:37;11.60;99.90
49242;DHT22;35079;52.704;13.814;2022-09-17T00:10:03;11.60;99.90
49242;DHT22;35079;52.704;13.814;2022-09-17T00:12:30;11.50;99.90
49242;DHT22;35079;52.704;13.814;2022-09-17T00:14:56;11.60;99.90
49242;DHT22;35079;52.704;13.814;2022-09-17T00:17:25;11.50;99.90
49242;DHT22;35079;52.704;13.814;2022-09-17T00:19:50;11.30;99.90
49242;DHT22;35079;52.704;13.814;2022-09-17T00:22:16;11.40;99.90
49242;DHT22;35079;52.704;13.814;2022-09-17T00:24:42;11.40;99.90
49242;DHT22;35079;52.704;13.814;2022-09-17T00:27:08;11.30;99.90
49242;DHT22;35079;52.704;13.814;2022-09-17T00:29:33;11.30;99.90
49242;DHT22;35079;52.704;13.814;2022-09-17T00:31:59;11.30;99.90
49242;DHT22;35079;52.704;13.814;2022-09-17T00:34:24;11.30;99.90
49242;DHT22;35079;52.704;13.814;2022-09-17T00:36:50;11.30;99.90
49242;DHT22;35079;52.704;13.814;2022-09-17T00:39:16;11.40;99.90
49242;DHT22;35079;52.704;13.814;2022-09-17T00:41:42;11.40;99.90
49242;DHT22;35079;52.704;13.814;2022-09-17T00:47:11;11.40;99.90
49242;DHT22;35079;52.704;13.814;2022-09-17T00:49:37;11.40;99.90
49242;DHT22;35079;52.704;13.814;2022-09-17T00:52:10;11.50;99.90
49242;DHT22;35079;52.704;13.814;2022-09-17T00:54:39;11.50;99.90
49242;DHT22;35079;52.704;13.814;2022-09-17T00:57:15;11.50;99.90
49242;DHT22;35079;52.704;13.814;2022-09-17T00:59:41;11.50;99.90
49242;DHT22;35079;52.704;13.814;2022-09-17T01:02:07;11.50;99.90
49242;DHT22;35079;52.704;13.814;2022-09-17T01:04:33;11.50;99.90
49242;DHT22;35079;52.704;13.814;2022-09-17T01:07:18;11.60;99.90
49242;DHT22;35079;52.704;13.814;2022-09-17T01:10:02;11.50;99.90
49242;DHT22;35079;52.704;13.814;2022-09-17T01:12:53;11.50;99.90
49242;DHT22;35079;52.704;13.814;2022-09-17T01:15:48;11.50;99.90
49242;DHT22;35079;52.704;13.814;2022-09-17T01:32:44;11.70;99.90
49242;DHT22;35079;52.704;13.814;2022-09-17T01:35:16;11.80;99.90
49242;DHT22;35079;52.704;13.814;2022-09-17T01:37:58;11.70;99.90
49242;DHT22;35079;52.704;13.814;2022-09-17T01:40:34;11.80;99.90
49242;DHT22;35079;52.704;13.814;2022-09-17T01:43:26;11.80;99.90
49242;DHT22;35079;52.704;13.814;2022-09-17T01:46:09;11.80;99.90
49242;DHT22;35079;52.704;13.814;2022-09-17T01:48:40;11.90;99.90
49242;DHT22;35079;52.704;13.814;2022-09-17T01:51:11;12.00;99.90
49242;DHT22;35079;52.704;13.814;2022-09-17T01:54:03;11.80;99.90
49242;DHT22;35079;52.704;13.814;2022-09-17T01:59:17;12.00;99.90
49242;DHT22;35079;52.704;13.814;2022-09-17T02:01:46;12.00;99.90
49242;DHT22;35079;52.704;13.814;2022-09-17T02:04:18;12.00;99.90
49242;DHT22;35079;52.704;13.814;2022-09-17T02:06:51;11.90;99.90
49242;DHT22;35079;52.704;13.814;2022-09-17T02:09:39;12.10;99.90
49242;DHT22;35079;52.704;13.814;2022-09-17T02:12:14;12.10;99.90
49242;DHT22;35079;52.704;13.814;2022-09-17T02:14:49;12.10;99.90
49242;DHT22;35079;52.704;13.814;2022-09-17T02:17:24;12.10;99.90
49242;DHT22;35079;52.704;13.814;2022-09-17T02:19:52;12.10;99.90
49242;DHT22;35079;52.704;13.814;2022-09-17T02:22:26;12.10;99.90
49242;DHT22;35079;52.704;13.814;2022-09-17T02:25:03;12.10;99.90
49242;DHT22;35079;52.704;13.814;2022-09-17T02:30:21;12.10;99.90
49242;DHT22;35079;52.704;13.814;2022-09-17T02:32:46;12.10;99.90
49242;DHT22;35079;52.704;13.814;2022-09-17T02:35:13;12.20;99.90
49242;DHT22;35079;52.704;13.814;2022-09-17T02:37:43;12.20;99.90
49242;DHT22;35079;52.704;13.814;2022-09-17T02:40:14;12.10;99.90
49242;DHT22;35079;52.704;13.814;2022-09-17T02:45:23;12.10;99.90
49242;DHT22;35079;52.704;13.814;2022-09-17T02:53:36;12.10;99.90
49242;DHT22;35079;52.704;13.814;2022-09-17T03:01:48;12.10;99.90
49242;DHT22;35079;52.704;13.814;2022-09-17T03:04:17;12.10;99.90
49242;DHT22;35079;52.704;13.814;2022-09-17T03:06:46;12.10;99.90
49242;DHT22;35079;52.704;13.814;2022-09-17T03:09:15;12.10;99.90
49242;DHT22;35079;52.704;13.814;2022-09-17T03:11:41;12.10;99.90
49242;DHT22;35079;52.704;13.814;2022-09-17T03:14:06;12.10;99.90
49242;DHT22;35079;52.704;13.814;2022-09-17T03:16:32;12.20;99.90
49242;DHT22;35079;52.704;13.814;2022-09-17T03:18:58;12.10;99.90
49242;DHT22;35079;52.704;13.814;2022-09-17T03:21:24;12.10;99.90
49242;DHT22;35079;52.704;13.814;2022-09-17T03:23:49;12.10;99.90
49242;DHT22;35079;52.704;13.814;2022-09-17T03:26:15;12.20;99.90
49242;DHT22;35079;52.704;13.814;2022-09-17T03:28:40;12.20;99.90
49242;DHT22;35079;52.704;13.814;2022-09-17T03:31:06;12.10;99.90
49242;DHT22;35079;52.704;13.814;2022-09-17T03:33:31;12.10;99.90
49242;DHT22;35079;52.704;13.814;2022-09-17T03:35:57;12.10;99.90
49242;DHT22;35079;52.704;13.814;2022-09-17T03:38:23;12.20;99.90
49242;DHT22;35079;52.704;13.814;2022-09-17T03:40:59;12.10;99.90
49242;DHT22;35079;52.704;13.814;2022-09-17T03:43:25;12.20;99.90
49242;DHT22;35079;52.704;13.814;2022-09-17T03:45:51;12.10;99.90
49242;DHT22;35079;52.704;13.814;2022-09-17T03:48:17;12.20;99.90
49242;DHT22;35079;52.704;13.814;2022-09-17T03:50:43;12.10;99.90
49242;DHT22;35079;52.704;13.814;2022-09-17T03:53:08;12.00;99.90
49242;DHT22;35079;52.704;13.814;2022-09-17T03:55:37;12.20;99.90
49242;DHT22;35079;52.704;13.814;2022-09-17T03:58:03;12.20;99.90
49242;DHT22;35079;52.704;13.814;2022-09-17T04:00:29;12.20;99.90
49242;DHT22;35079;52.704;13.814;2022-09-17T04:02:54;12.20;99.90
49242;DHT22;35079;52.704;13.814;2022-09-17T04:05:22;12.20;99.90
49242;DHT22;35079;52.704;13.814;2022-09-17T04:07:48;12.30;99.90
49242;DHT22;35079;52.704;13.814;2022-09-17T04:10:14;12.20;99.90
49242;DHT22;35079;52.704;13.814;2022-09-17T04:12:40;12.20;99.90
49242;DHT22;35079;52.704;13.814;2022-09-17T04:15:06;12.20;99.90
49242;DHT22;35079;52.704;13.814;2022-09-17T04:17:32;12.20;99.90
49242;DHT22;35079;52.704;13.814;2022-09-17T04:19:58;12.30;99.90
49242;DHT22;35079;52.704;13.814;2022-09-17T04:22:26;12.20;99.90
49242;DHT22;35079;52.704;13.814;2022-09-17T04:24:52;12.20;99.90
49242;DHT22;35079;52.704;13.814;2022-09-17T04:27:18;12.20;99.90
49242;DHT22;35079;52.704;13.814;2022-09-17T04:29:43;12.20;99.90
49242;DHT22;35079;52.704;13.814;2022-09-17T04:32:09;12.30;99.90
49242;DHT22;35079;52.704;13.814;2022-09-17T04:34:34;12.30;99.90
49242;DHT22;35079;52.704;13.814;2022-09-17T04:37:00;12.30;99.90
49242;DHT22;35079;52.704;13.814;2022-09-17T04:39:25;12.40;99.90
49242;DHT22;35079;52.704;13.814;2022-09-17T04:41:51;12.20;99.90
49242;DHT22;35079;52.704;13.814;2022-09-17T04:44:17;12.20;99.90
49242;DHT22;35079;52.704;13.814;2022-09-17T04:46:42;12.30;99.90
49242;DHT22;35079;52.704;13.814;2022-09-17T04:49:08;12.20;99.90
49242;DHT22;35079;52.704;13.814;2022-09-17T04:51:33;12.30;99.90
49242;DHT22;35079;52.704;13.814;2022-09-17T04:53:59;12.20;99.90
49242;DHT22;35079;52.704;13.814;2022-09-17T04:56:25;12.30;99.90
49242;DHT22;35079;52.704;13.814;2022-09-17T04:58:50;12.30;99.90
49242;DHT22;35079;52.704;13.814;2022-09-17T05:01:16;12.40;99.90
49242;DHT22;35079;52.704;13.814;2022-09-17T05:03:43;12.30;99.90
49242;DHT22;35079;52.704;13.814;2022-09-17T05:06:09;12.30;99.90
49242;DHT22;35079;52.704;13.814;2022-09-17T05:08:35;12.30;99.90
49242;DHT22;35079;52.704;13.814;2022-09-17T05:11:01;12.40;99.90
49242;DHT22;35079;52.704;13.814;2022-09-17T05:13:27;12.40;99.90
49242;DHT22;35079;52.704;13.814;2022-09-17T05:15:54;12.40;99.90
49242;DHT22;35079;52.704;13.814;2022-09-17T05:18:21;12.30;99.90
49242;DHT22;35079;52.704;13.814;2022-09-17T05:20:47;12.30;99.90
49242;DHT22;35079;52.704;13.814;2022-09-17T05:23:12;12.50;99.90
49242;DHT22;35079;52.704;13.814;2022-09-17T05:25:38;12.40;99.90
49242;DHT22;35079;52.704;13.814;2022-09-17T05:28:04;12.40;99.90
49242;DHT22;35079;52.704;13.814;2022-09-17T05:30:30;12.40;99.90
49242;DHT22;35079;52.704;13.814;2022-09-17T05:33:03;12.50;99.90
49242;DHT22;35079;52.704;13.814;2022-09-17T05:35:30;12.40;99.90
49242;DHT22;35079;52.704;13.814;2022-09-17T05:38:01;12.40;99.90
49242;DHT22;35079;52.704;13.814;2022-09-17T05:40:28;12.30;99.90
49242;DHT22;35079;52.704;13.814;2022-09-17T05:43:02;12.40;99.90
49242;DHT22;35079;52.704;13.814;2022-09-17T05:45:28;12.30;99.90
49242;DHT22;35079;52.704;13.814;2022-09-17T05:47:55;12.30;99.90
49242;DHT22;35079;52.704;13.814;2022-09-17T05:50:21;12.30;99.90
49242;DHT22;35079;52.704;13.814;2022-09-17T05:52:48;12.30;99.90
49242;DHT22;35079;52.704;13.814;2022-09-17T05:55:14;12.20;99.90
49242;DHT22;35079;52.704;13.814;2022-09-17T05:57:39;12.20;99.90
49242;DHT22;35079;52.704;13.814;2022-09-17T06:00:05;12.30;99.90
49242;DHT22;35079;52.704;13.814;2022-09-17T06:02:31;12.20;99.90
49242;DHT22;35079;52.704;13.814;2022-09-17T06:04:57;12.40;99.90
49242;DHT22;35079;52.704;13.814;2022-09-17T06:07:26;12.30;99.90
49242;DHT22;35079;52.704;13.814;2022-09-17T06:09:52;12.30;99.90
49242;DHT22;35079;52.704;13.814;2022-09-17T06:12:17;12.40;99.90
49242;DHT22;35079;52.704;13.814;2022-09-17T06:14:43;12.40;99.90
49242;DHT22;35079;52.704;13.814;2022-09-17T06:17:08;12.30;99.90
49242;DHT22;35079;52.704;13.814;2022-09-17T06:19:34;12.40;99.90
49242;DHT22;35079;52.704;13.814;2022-09-17T06:22:00;12.50;99.90
49242;DHT22;35079;52.704;13.814;2022-09-17T06:24:26;12.40;99.90
49242;DHT22;35079;52.704;13.814;2022-09-17T06:26:52;12.40;99.90
49242;DHT22;35079;52.704;13.814;2022-09-17T06:29:18;12.60;99.90
49242;DHT22;35079;52.704;13.814;2022-09-17T06:31:46;12.70;99.90
49242;DHT22;35079;52.704;13.814;2022-09-17T06:34:12;12.80;99.90
49242;DHT22;35079;52.704;13.814;2022-09-17T06:36:37;12.70;99.90
49242;DHT22;35079;52.704;13.814;2022-09-17T06:39:03;12.90;99.90
49242;DHT22;35079;52.704;13.814;2022-09-17T06:41:28;12.80;99.90
49242;DHT22;35079;52.704;13.814;2022-09-17T06:43:54;12.90;99.90
49242;DHT22;35079;52.704;13.814;2022-09-17T06:46:20;12.80;99.90
49242;DHT22;35079;52.704;13.814;2022-09-17T06:48:46;13.00;99.90
49242;DHT22;35079;52.704;13.814;2022-09-17T06:51:12;12.90;99.90
49242;DHT22;35079;52.704;13.814;2022-09-17T06:53:39;12.90;99.90
49242;DHT22;35079;52.704;13.814;2022-09-17T06:56:06;12.90;99.90
49242;DHT22;35079;52.704;13.814;2022-09-17T06:58:34;12.80;99.90
49242;DHT22;35079;52.704;13.814;2022-09-17T07:01:04;12.90;99.90
49242;DHT22;35079;52.704;13.814;2022-09-17T07:03:30;12.90;99.90
49242;DHT22;35079;52.704;13.814;2022-09-17T07:05:56;13.10;99.90
49242;DHT22;35079;52.704;13.814;2022-09-17T07:08:22;13.10;99.90
49242;DHT22;35079;52.704;13.814;2022-09-17T07:10:48;13.20;99.90
49242;DHT22;35079;52.704;13.814;2022-09-17T07:13:14;13.20;99.90
49242;DHT22;35079;52.704;13.814;2022-09-17T07:15:40;13.30;99.90
49242;DHT22;35079;52.704;13.814;2022-09-17T07:18:09;13.30;99.90
49242;DHT22;35079;52.704;13.814;2022-09-17T07:20:36;13.40;99.90
49242;DHT22;35079;52.704;13.814;2022-09-17T07:23:01;13.50;99.90
49242;DHT22;35079;52.704;13.814;2022-09-17T07:25:27;13.70;99.90
49242;DHT22;35079;52.704;13.814;2022-09-17T07:27:53;13.70;99.90
49242;DHT22;35079;52.704;13.814;2022-09-17T07:30:20;13.70;99.90
49242;DHT22;35079;52.704;13.814;2022-09-17T07:32:45;13.60;99.90
49242;DHT22;35079;52.704;13.814;2022-09-17T07:35:11;13.60;99.90
49242;DHT22;35079;52.704;13.814;2022-09-17T07:37:38;13.60;99.90
49242;DHT22;35079;52.704;13.814;2022-09-17T07:40:04;13.70;99.90
49242;DHT22;35079;52.704;13.814;2022-09-17T07:42:34;13.80;99.90
49242;DHT22;35079;52.704;13.814;2022-09-17T07:44:59;13.80;99.90
49242;DHT22;35079;52.704;13.814;2022-09-17T07:47:25;13.70;99.90
49242;DHT22;35079;52.704;13.814;2022-09-17T07:49:51;13.70;99.90
49242;DHT22;35079;52.704;13.814;2022-09-17T07:52:17;13.70;99.90
49242;DHT22;35079;52.704;13.814;2022-09-17T07:54:42;13.60;99.90
49242;DHT22;35079;52.704;13.814;2022-09-17T07:57:08;13.60;99.90
49242;DHT22;35079;52.704;13.814;2022-09-17T07:59:33;13.50;99.90
49242;DHT22;35079;52.704;13.814;2022-09-17T08:01:59;13.40;99.90
49242;DHT22;35079;52.704;13.814;2022-09-17T08:04:25;13.30;99.90
49242;DHT22;35079;52.704;13.814;2022-09-17T08:06:50;13.30;99.90
49242;DHT22;35079;52.704;13.814;2022-09-17T08:09:16;13.20;99.90
49242;DHT22;35079;52.704;13.814;2022-09-17T08:11:43;13.20;99.90
49242;DHT22;35079;52.704;13.814;2022-09-17T08:14:14;13.10;99.90
49242;DHT22;35079;52.704;13.814;2022-09-17T08:16:40;13.30;99.90
49242;DHT22;35079;52.704;13.814;2022-09-17T08:19:06;13.30;99.90
49242;DHT22;35079;52.704;13.814;2022-09-17T08:21:38;13.40;99.90
49242;DHT22;35079;52.704;13.814;2022-09-17T08:24:04;13.50;99.90
49242;DHT22;35079;52.704;13.814;2022-09-17T08:26:29;13.70;99.90
49242;DHT22;35079;52.704;13.814;2022-09-17T08:28:55;13.70;99.90
49242;DHT22;35079;52.704;13.814;2022-09-17T08:31:22;13.70;99.90
49242;DHT22;35079;52.704;13.814;2022-09-17T08:33:48;13.60;99.90
49242;DHT22;35079;52.704;13.814;2022-09-17T08:36:16;13.60;99.90
49242;DHT22;35079;52.704;13.814;2022-09-17T08:38:43;13.50;99.90
49242;DHT22;35079;52.704;13.814;2022-09-17T08:46:57;13.50;99.90
49242;DHT22;35079;52.704;13.814;2022-09-17T09:03:55;13.40;99.90
49242;DHT22;35079;52.704;13.814;2022-09-17T09:06:28;13.50;99.90
49242;DHT22;35079;52.704;13.814;2022-09-17T09:09:05;13.80;99.90
49242;DHT22;35079;52.704;13.814;2022-09-17T09:11:35;13.90;99.90
49242;DHT22;35079;52.704;13.814;2022-09-17T09:17:11;14.10;99.90
49242;DHT22;35079;52.704;13.814;2022-09-17T09:19:41;14.10;99.90
49242;DHT22;35079;52.704;13.814;2022-09-17T09:27:40;15.00;99.90
49242;DHT22;35079;52.704;13.814;2022-09-17T09:30:14;15.90;99.90
49242;DHT22;35079;52.704;13.814;2022-09-17T09:32:59;16.80;99.90
49242;DHT22;35079;52.704;13.814;2022-09-17T09:35:33;17.30;99.90
49242;DHT22;35079;52.704;13.814;2022-09-17T09:43:44;16.50;99.90
49242;DHT22;35079;52.704;13.814;2022-09-17T09:51:46;15.00;99.90
49242;DHT22;35079;52.704;13.814;2022-09-17T09:54:26;14.70;99.90
49242;DHT22;35079;52.704;13.814;2022-09-17T09:57:04;14.60;99.90
49242;DHT22;35079;52.704;13.814;2022-09-17T09:59:32;14.70;99.90
49242;DHT22;35079;52.704;13.814;2022-09-17T10:01:58;14.80;99.90
49242;DHT22;35079;52.704;13.814;2022-09-17T10:04:27;15.00;99.90
49242;DHT22;35079;52.704;13.814;2022-09-17T10:07:09;15.00;99.90
49242;DHT22;35079;52.704;13.814;2022-09-17T10:09:37;14.90;99.90
49242;DHT22;35079;52.704;13.814;2022-09-17T10:12:14;14.90;99.90
49242;DHT22;35079;52.704;13.814;2022-09-17T10:14:42;14.80;99.90
49242;DHT22;35079;52.704;13.814;2022-09-17T10:19:43;14.80;99.90
49242;DHT22;35079;52.704;13.814;2022-09-17T10:24:56;14.80;99.90
49242;DHT22;35079;52.704;13.814;2022-09-17T10:27:24;14.90;99.90
49242;DHT22;35079;52.704;13.814;2022-09-17T10:32:34;15.10;99.90
49242;DHT22;35079;52.704;13.814;2022-09-17T10:35:05;15.00;99.90
49242;DHT22;35079;52.704;13.814;2022-09-17T10:37:46;15.00;99.90
49242;DHT22;35079;52.704;13.814;2022-09-17T10:40:25;14.90;99.90
49242;DHT22;35079;52.704;13.814;2022-09-17T10:45:51;14.90;99.90
49242;DHT22;35079;52.704;13.814;2022-09-17T10:48:20;14.90;99.90
49242;DHT22;35079;52.704;13.814;2022-09-17T10:50:51;14.80;99.90
49242;DHT22;35079;52.704;13.814;2022-09-17T10:53:19;14.70;99.90
49242;DHT22;35079;52.704;13.814;2022-09-17T10:56:18;14.50;99.90
49242;DHT22;35079;52.704;13.814;2022-09-17T11:07:09;14.30;99.90
49242;DHT22;35079;52.704;13.814;2022-09-17T11:09:41;14.40;99.90
49242;DHT22;35079;52.704;13.814;2022-09-17T11:12:14;14.40;99.90
49242;DHT22;35079;52.704;13.814;2022-09-17T11:15:02;14.60;99.90
49242;DHT22;35079;52.704;13.814;2022-09-17T11:17:52;14.80;99.90
49242;DHT22;35079;52.704;13.814;2022-09-17T11:26:25;15.70;99.90
49242;DHT22;35079;52.704;13.814;2022-09-17T11:34:35;15.40;99.90
49242;DHT22;35079;52.704;13.814;2022-09-17T11:37:19;15.80;99.90
49242;DHT22;35079;52.704;13.814;2022-09-17T11:40:00;16.30;99.90
49242;DHT22;35079;52.704;13.814;2022-09-17T11:42:37;16.80;99.90
49242;DHT22;35079;52.704;13.814;2022-09-17T11:45:28;16.70;99.90
49242;DHT22;35079;52.704;13.814;2022-09-17T11:48:14;16.80;99.90
49242;DHT22;35079;52.704;13.814;2022-09-17T11:53:20;17.70;99.90
49242;DHT22;35079;52.704;13.814;2022-09-17T12:01:55;16.10;99.90
49242;DHT22;35079;52.704;13.814;2022-09-17T12:04:31;15.70;99.90
49242;DHT22;35079;52.704;13.814;2022-09-17T12:07:17;15.50;99.90
49242;DHT22;35079;52.704;13.814;2022-09-17T12:09:50;15.30;99.90
49242;DHT22;35079;52.704;13.814;2022-09-17T12:12:23;15.20;99.90
49242;DHT22;35079;52.704;13.814;2022-09-17T12:15:06;15.10;99.90
49242;DHT22;35079;52.704;13.814;2022-09-17T12:17:46;15.20;99.90
49242;DHT22;35079;52.704;13.814;2022-09-17T12:20:35;15.60;99.90
49242;DHT22;35079;52.704;13.814;2022-09-17T12:23:05;15.50;99.90
49242;DHT22;35079;52.704;13.814;2022-09-17T12:25:44;15.40;99.90
49242;DHT22;35079;52.704;13.814;2022-09-17T12:28:38;15.40;99.90
49242;DHT22;35079;52.704;13.814;2022-09-17T12:31:30;15.70;99.90
49242;DHT22;35079;52.704;13.814;2022-09-17T12:36:36;16.30;99.90
49242;DHT22;35079;52.704;13.814;2022-09-17T12:39:27;16.50;99.90
49242;DHT22;35079;52.704;13.814;2022-09-17T12:42:02;16.60;99.90
49242;DHT22;35079;52.704;13.814;2022-09-17T12:44:58;16.60;99.90
49242;DHT22;35079;52.704;13.814;2022-09-17T12:48:01;16.60;99.90
49242;DHT22;35079;52.704;13.814;2022-09-17T12:50:53;16.50;99.90
49242;DHT22;35079;52.704;13.814;2022-09-17T12:53:22;16.60;99.90
49242;DHT22;35079;52.704;13.814;2022-09-17T12:59:09;16.30;99.90
49242;DHT22;35079;52.704;13.814;2022-09-17T13:01:51;16.00;99.90
49242;DHT22;35079;52.704;13.814;2022-09-17T13:10:07;16.00;99.90
49242;DHT22;35079;52.704;13.814;2022-09-17T13:15:29;16.00;99.90
49242;DHT22;35079;52.704;13.814;2022-09-17T13:18:15;16.00;99.90
49242;DHT22;35079;52.704;13.814;2022-09-17T13:21:05;16.00;99.90
49242;DHT22;35079;52.704;13.814;2022-09-17T13:23:45;15.90;99.90
49242;DHT22;35079;52.704;13.814;2022-09-17T13:26:13;15.80;99.90
49242;DHT22;35079;52.704;13.814;2022-09-17T13:28:45;15.50;99.90
49242;DHT22;35079;52.704;13.814;2022-09-17T13:31:12;15.40;99.90
49242;DHT22;35079;52.704;13.814;2022-09-17T13:33:58;15.50;99.90
49242;DHT22;35079;52.704;13.814;2022-09-17T13:37:02;15.50;99.90
49242;DHT22;35079;52.704;13.814;2022-09-17T13:44:43;15.50;99.90
49242;DHT22;35079;52.704;13.814;2022-09-17T13:49:54;15.30;99.90
49242;DHT22;35079;52.704;13.814;2022-09-17T13:52:43;15.10;99.90
49242;DHT22;35079;52.704;13.814;2022-09-17T13:55:29;15.00;99.90
49242;DHT22;35079;52.704;13.814;2022-09-17T13:57:56;15.00;99.90
49242;DHT22;35079;52.704;13.814;2022-09-17T14:00:49;15.00;99.90
49242;DHT22;35079;52.704;13.814;2022-09-17T14:13:50;15.20;99.90
49242;DHT22;35079;52.704;13.814;2022-09-17T14:22:16;14.80;99.90
49242;DHT22;35079;52.704;13.814;2022-09-17T14:24:45;14.90;99.90
49242;DHT22;35079;52.704;13.814;2022-09-17T14:30:14;15.00;99.90
49242;DHT22;35079;52.704;13.814;2022-09-17T14:38:02;14.90;99.90
49242;DHT22;35079;52.704;13.814;2022-09-17T14:40:31;14.90;99.90
49242;DHT22;35079;52.704;13.814;2022-09-17T14:42:58;15.00;99.90
49242;DHT22;35079;52.704;13.814;2022-09-17T14:45:28;15.10;99.90
49242;DHT22;35079;52.704;13.814;2022-09-17T14:48:18;15.20;99.90
49242;DHT22;35079;52.704;13.814;2022-09-17T14:50:45;15.20;99.90
49242;DHT22;35079;52.704;13.814;2022-09-17T14:53:18;15.00;99.90
49242;DHT22;35079;52.704;13.814;2022-09-17T14:55:48;14.80;99.90
49242;DHT22;35079;52.704;13.814;2022-09-17T14:58:32;14.70;99.90
49242;DHT22;35079;52.704;13.814;2022-09-17T15:00:58;14.60;99.90
49242;DHT22;35079;52.704;13.814;2022-09-17T15:03:24;14.60;99.90
49242;DHT22;35079;52.704;13.814;2022-09-17T15:05:50;14.50;99.90
49242;DHT22;35079;52.704;13.814;2022-09-17T15:08:19;14.40;99.90
49242;DHT22;35079;52.704;13.814;2022-09-17T15:10:52;14.40;99.90
49242;DHT22;35079;52.704;13.814;2022-09-17T15:13:34;14.40;99.90
49242;DHT22;35079;52.704;13.814;2022-09-17T15:16:22;14.30;99.90
49242;DHT22;35079;52.704;13.814;2022-09-17T15:18:59;14.10;99.90
49242;DHT22;35079;52.704;13.814;2022-09-17T15:21:38;14.10;99.90
49242;DHT22;35079;52.704;13.814;2022-09-17T15:26:53;13.90;99.90
49242;DHT22;35079;52.704;13.814;2022-09-17T15:29:25;13.90;99.90
49242;DHT22;35079;52.704;13.814;2022-09-17T15:31:51;13.80;99.90
49242;DHT22;35079;52.704;13.814;2022-09-17T15:34:17;13.90;99.90
49242;DHT22;35079;52.704;13.814;2022-09-17T15:39:40;13.70;99.90
49242;DHT22;35079;52.704;13.814;2022-09-17T15:42:30;13.70;99.90
49242;DHT22;35079;52.704;13.814;2022-09-17T15:45:07;13.70;99.90
49242;DHT22;35079;52.704;13.814;2022-09-17T15:47:52;13.60;99.90
49242;DHT22;35079;52.704;13.814;2022-09-17T15:50:20;13.50;99.90
49242;DHT22;35079;52.704;13.814;2022-09-17T15:52:46;13.50;99.90
49242;DHT22;35079;52.704;13.814;2022-09-17T15:55:41;13.40;99.90
49242;DHT22;35079;52.704;13.814;2022-09-17T15:58:25;13.30;99.90
49242;DHT22;35079;52.704;13.814;2022-09-17T16:08:58;13.00;99.90
49242;DHT22;35079;52.704;13.814;2022-09-17T16:11:30;12.90;99.90
49242;DHT22;35079;52.704;13.814;2022-09-17T16:13:57;12.90;99.90
49242;DHT22;35079;52.704;13.814;2022-09-17T16:16:34;12.80;99.90
49242;DHT22;35079;52.704;13.814;2022-09-17T16:19:01;12.70;99.90
49242;DHT22;35079;52.704;13.814;2022-09-17T16:21:27;12.70;99.90
49242;DHT22;35079;52.704;13.814;2022-09-17T16:23:53;12.60;99.90
49242;DHT22;35079;52.704;13.814;2022-09-17T16:26:22;12.60;99.90
49242;DHT22;35079;52.704;13.814;2022-09-17T16:28:51;12.70;99.90
49242;DHT22;35079;52.704;13.814;2022-09-17T16:31:18;12.60;99.90
49242;DHT22;35079;52.704;13.814;2022-09-17T16:33:45;12.50;99.90
49242;DHT22;35079;52.704;13.814;2022-09-17T16:36:10;12.50;99.90
49242;DHT22;35079;52.704;13.814;2022-09-17T16:38:36;12.40;99.90
49242;DHT22;35079;52.704;13.814;2022-09-17T16:41:05;12.30;99.90
49242;DHT22;35079;52.704;13.814;2022-09-17T16:43:30;12.20;99.90
49242;DHT22;35079;52.704;13.814;2022-09-17T16:46:02;12.20;99.90
49242;DHT22;35079;52.704;13.814;2022-09-17T16:48:29;12.20;99.90
49242;DHT22;35079;52.704;13.814;2022-09-17T16:50:55;12.00;99.90
49242;DHT22;35079;52.704;13.814;2022-09-17T16:53:21;12.00;99.90
49242;DHT22;35079;52.704;13.814;2022-09-17T16:55:46;12.10;99.90
49242;DHT22;35079;52.704;13.814;2022-09-17T16:58:12;12.00;99.90
49242;DHT22;35079;52.704;13.814;2022-09-17T17:00:40;12.00;99.90
49242;DHT22;35079;52.704;13.814;2022-09-17T17:03:06;11.90;99.90
49242;DHT22;35079;52.704;13.814;2022-09-17T17:05:35;11.90;99.90
49242;DHT22;35079;52.704;13.814;2022-09-17T17:08:01;12.10;99.90
49242;DHT22;35079;52.704;13.814;2022-09-17T17:10:27;12.10;99.90
49242;DHT22;35079;52.704;13.814;2022-09-17T17:12:53;12.10;99.90
49242;DHT22;35079;52.704;13.814;2022-09-17T17:15:19;12.10;99.90
49242;DHT22;35079;52.704;13.814;2022-09-17T17:17:46;12.00;99.90
49242;DHT22;35079;52.704;13.814;2022-09-17T17:20:11;12.10;99.90
49242;DHT22;35079;52.704;13.814;2022-09-17T17:22:40;12.10;99.90
49242;DHT22;35079;52.704;13.814;2022-09-17T17:25:08;12.10;99.90
49242;DHT22;35079;52.704;13.814;2022-09-17T17:27:34;12.00;99.90
49242;DHT22;35079;52.704;13.814;2022-09-17T17:30:00;12.10;99.90
49242;DHT22;35079;52.704;13.814;2022-09-17T17:32:27;12.00;99.90
49242;DHT22;35079;52.704;13.814;2022-09-17T17:34:52;12.00;99.90
49242;DHT22;35079;52.704;13.814;2022-09-17T17:37:18;12.00;99.90
49242;DHT22;35079;52.704;13.814;2022-09-17T17:39:46;12.10;99.90
49242;DHT22;35079;52.704;13.814;2022-09-17T17:42:11;11.90;99.90
49242;DHT22;35079;52.704;13.814;2022-09-17T17:44:37;11.90;99.90
49242;DHT22;35079;52.704;13.814;2022-09-17T17:47:02;11.80;99.90
49242;DHT22;35079;52.704;13.814;2022-09-17T17:49:28;11.80;99.90
49242;DHT22;35079;52.704;13.814;2022-09-17T17:51:54;11.90;99.90
49242;DHT22;35079;52.704;13.814;2022-09-17T17:54:19;11.90;99.90
49242;DHT22;35079;52.704;13.814;2022-09-17T17:56:46;11.80;99.90
49242;DHT22;35079;52.704;13.814;2022-09-17T17:59:11;11.90;99.90
49242;DHT22;35079;52.704;13.814;2022-09-17T18:01:37;11.80;99.90
49242;DHT22;35079;52.704;13.814;2022-09-17T18:04:04;11.90;99.90
49242;DHT22;35079;52.704;13.814;2022-09-17T18:06:32;11.90;99.90
49242;DHT22;35079;52.704;13.814;2022-09-17T18:08:59;11.80;99.90
49242;DHT22;35079;52.704;13.814;2022-09-17T18:11:25;11.80;99.90
49242;DHT22;35079;52.704;13.814;2022-09-17T18:13:53;11.80;99.90
49242;DHT22;35079;52.704;13.814;2022-09-17T18:16:19;11.80;99.90
49242;DHT22;35079;52.704;13.814;2022-09-17T18:18:45;11.80;99.90
49242;DHT22;35079;52.704;13.814;2022-09-17T18:21:14;11.90;99.90
49242;DHT22;35079;52.704;13.814;2022-09-17T18:23:40;11.80;99.90
49242;DHT22;35079;52.704;13.814;2022-09-17T18:26:09;11.80;99.90
49242;DHT22;35079;52.704;13.814;2022-09-17T18:28:35;11.80;99.90
49242;DHT22;35079;52.704;13.814;2022-09-17T18:31:21;11.80;99.90